createdAt,value
2017-07-03T00:04:15.485Z,4.63
2017-07-03T00:16:46.048Z,4.30
2017-07-03T00:22:58.527Z,3.33
2017-07-03T00:28:38.256Z,4.20
2017-07-03T00:34:17.332Z,4.17
2017-07-03T00:37:21.171Z,3.90
2017-07-03T00:43:22.224Z,5.53
2017-07-03T00:45:53.943Z,5.33
2017-07-03T00:48:25.208Z,6.40
2017-07-03T00:51:07.702Z,4.23
2017-07-03T00:53:42.060Z,7.30
2017-07-03T00:56:21.182Z,5.53
2017-07-03T00:59:07.568Z,5.40
2017-07-03T01:01:39.532Z,6.13
2017-07-03T01:04:09.108Z,6.60
2017-07-03T01:06:37.704Z,6.53
2017-07-03T01:09:15.538Z,7.57
2017-07-03T01:11:45.968Z,10.67
2017-07-03T01:14:24.017Z,8.40
2017-07-03T01:16:55.722Z,4.90
2017-07-03T01:20:00.313Z,3.90
2017-07-03T01:25:27.822Z,1.90
2017-07-03T01:28:00.309Z,1.70
2017-07-03T01:34:25.732Z,1.30
2017-07-03T01:37:06.896Z,1.30
2017-07-03T01:40:04.190Z,1.23
2017-07-03T01:42:44.283Z,3.33
2017-07-03T01:45:15.231Z,1.70
2017-07-03T01:47:42.873Z,1.63
2017-07-03T01:50:12.785Z,1.83
2017-07-03T01:52:41.742Z,1.50
2017-07-03T02:04:54.313Z,1.10
2017-07-03T02:07:27.216Z,0.97
2017-07-03T02:10:19.562Z,1.20
2017-07-03T02:13:18.593Z,1.47
2017-07-03T02:15:48.684Z,1.50
2017-07-03T02:18:16.365Z,1.97
2017-07-03T02:20:45.182Z,1.27
2017-07-03T02:23:21.984Z,1.60
2017-07-03T02:26:07.161Z,1.63
2017-07-03T02:28:37.489Z,2.40
2017-07-03T02:31:06.820Z,2.30
2017-07-03T02:43:24.989Z,2.60
2017-07-03T02:46:02.632Z,2.90
2017-07-03T02:48:34.099Z,2.63
2017-07-03T02:51:01.897Z,2.70
2017-07-03T02:53:36.436Z,2.60
2017-07-03T02:56:05.969Z,3.20
2017-07-03T02:58:38.243Z,2.40
2017-07-03T03:01:16.436Z,3.40
2017-07-03T03:03:46.807Z,6.40
2017-07-03T03:06:15.153Z,3.90
2017-07-03T03:08:50.936Z,4.70
2017-07-03T03:11:32.725Z,3.43
2017-07-03T03:14:09.663Z,4.13
2017-07-03T03:16:37.262Z,3.60
2017-07-03T03:19:05.657Z,4.03
2017-07-03T03:21:36.071Z,3.90
2017-07-03T03:27:21.507Z,4.07
2017-07-03T03:29:49.157Z,4.30
2017-07-03T03:32:17.579Z,4.03
2017-07-03T03:34:48.166Z,4.60
2017-07-03T03:37:18.241Z,4.10
2017-07-03T03:39:47.745Z,3.43
2017-07-03T03:42:20.938Z,4.40
2017-07-03T03:44:49.400Z,4.40
2017-07-03T03:47:18.332Z,4.10
2017-07-03T03:52:55.333Z,5.77
2017-07-03T03:55:26.796Z,4.40
2017-07-03T03:57:56.606Z,4.77
2017-07-03T04:00:32.276Z,4.47
2017-07-03T04:02:59.971Z,3.37
2017-07-03T04:05:27.860Z,4.30
2017-07-03T04:07:56.256Z,4.07
2017-07-03T04:10:26.487Z,4.60
2017-07-03T04:12:55.478Z,4.60
2017-07-03T04:18:39.760Z,4.13
2017-07-03T04:21:25.274Z,4.90
2017-07-03T04:23:55.258Z,4.13
2017-07-03T04:26:22.935Z,4.73
2017-07-03T04:28:51.901Z,5.00
2017-07-03T04:31:21.688Z,4.03
2017-07-03T04:33:50.043Z,4.10
2017-07-03T04:36:21.640Z,5.57
2017-07-03T04:38:52.496Z,4.60
2017-07-03T04:41:21.699Z,3.73
2017-07-03T04:43:49.885Z,3.80
2017-07-03T04:46:22.730Z,3.83
2017-07-03T04:48:50.358Z,4.13
2017-07-03T04:51:17.948Z,3.60
2017-07-03T04:53:46.421Z,4.07
2017-07-03T04:56:14.005Z,4.37
2017-07-03T04:58:41.579Z,4.10
2017-07-03T05:01:09.172Z,5.23
2017-07-03T05:03:38.601Z,4.93
2017-07-03T05:06:06.198Z,3.60
2017-07-03T05:08:33.746Z,3.83
2017-07-03T05:11:01.297Z,4.77
2017-07-03T05:13:28.860Z,5.07
2017-07-03T05:15:58.214Z,4.50
2017-07-03T05:18:25.780Z,6.50
2017-07-03T05:20:54.159Z,5.37
2017-07-03T05:23:21.722Z,5.60
2017-07-03T05:25:49.297Z,5.80
2017-07-03T05:28:17.612Z,4.37
2017-07-03T05:30:45.147Z,4.43
2017-07-03T05:33:13.493Z,4.93
2017-07-03T05:35:41.583Z,4.50
2017-07-03T05:38:09.583Z,5.30
2017-07-03T05:40:37.911Z,5.00
2017-07-03T05:43:11.125Z,4.10
2017-07-03T05:45:38.728Z,4.23
2017-07-03T05:48:07.025Z,4.37
2017-07-03T05:50:36.196Z,5.03
2017-07-03T05:53:03.727Z,5.80
2017-07-03T05:55:31.271Z,5.13
2017-07-03T05:57:58.874Z,4.90
2017-07-03T06:00:26.457Z,4.70
2017-07-03T06:02:54.775Z,5.83
2017-07-03T06:05:22.366Z,5.10
2017-07-03T06:07:49.963Z,6.53
2017-07-03T06:10:17.529Z,5.97
2017-07-03T06:12:45.141Z,5.73
2017-07-03T06:15:12.711Z,6.17
2017-07-03T06:17:40.302Z,6.17
2017-07-03T06:20:07.868Z,6.60
2017-07-03T06:22:35.401Z,6.30
2017-07-03T06:25:02.995Z,6.37
2017-07-03T06:27:30.562Z,7.03
2017-07-03T06:29:58.138Z,6.83
2017-07-03T06:32:25.729Z,8.00
2017-07-03T06:34:53.299Z,6.17
2017-07-03T06:37:21.644Z,6.63
2017-07-03T06:39:49.209Z,6.60
2017-07-03T06:42:16.827Z,7.33
2017-07-03T06:44:44.414Z,6.20
2017-07-03T06:47:11.996Z,6.77
2017-07-03T06:49:39.558Z,6.67
2017-07-03T06:52:07.171Z,6.87
2017-07-03T06:54:34.747Z,6.73
2017-07-03T06:57:02.312Z,6.33
2017-07-03T06:59:29.904Z,6.30
2017-07-03T07:01:57.561Z,7.13
2017-07-03T07:04:25.244Z,6.57
2017-07-03T07:06:52.776Z,5.90
2017-07-03T07:09:20.348Z,6.37
2017-07-03T07:11:48.049Z,6.93
2017-07-03T07:14:15.676Z,6.47
2017-07-03T07:16:43.292Z,8.10
2017-07-03T07:19:10.852Z,6.23
2017-07-03T07:21:38.438Z,6.20
2017-07-03T07:24:06.396Z,6.47
2017-07-03T07:26:33.943Z,6.47
2017-07-03T07:29:01.535Z,7.00
2017-07-03T07:31:29.112Z,6.50
2017-07-03T07:33:57.793Z,6.43
2017-07-03T07:36:25.957Z,5.63
2017-07-03T07:38:54.058Z,6.03
2017-07-03T07:41:22.096Z,6.00
2017-07-03T07:43:50.418Z,5.83
2017-07-03T07:46:18.922Z,7.77
2017-07-03T07:48:46.482Z,6.70
2017-07-03T07:51:14.077Z,6.70
2017-07-03T07:53:41.656Z,7.20
2017-07-03T07:56:10.067Z,5.83
2017-07-03T07:58:38.390Z,6.83
2017-07-03T08:01:05.996Z,7.23
2017-07-03T08:03:33.548Z,6.50
2017-07-03T08:06:01.144Z,7.07
2017-07-03T08:08:28.724Z,5.87
2017-07-03T08:10:56.284Z,5.50
2017-07-03T08:13:24.642Z,6.00
2017-07-03T08:15:52.208Z,5.90
2017-07-03T08:18:19.780Z,6.30
2017-07-03T08:20:48.754Z,6.53
2017-07-03T08:23:17.129Z,7.37
2017-07-03T08:25:44.695Z,5.60
2017-07-03T08:28:12.283Z,5.70
2017-07-03T08:30:39.851Z,5.87
2017-07-03T08:33:07.404Z,6.30
2017-07-03T08:35:34.982Z,5.73
2017-07-03T08:38:02.604Z,5.43
2017-07-03T08:40:30.296Z,5.50
2017-07-03T08:42:57.922Z,5.63
2017-07-03T08:45:25.537Z,5.20
2017-07-03T08:47:53.138Z,5.97
2017-07-03T08:50:20.741Z,5.93
2017-07-03T08:52:48.321Z,6.70
2017-07-03T08:55:15.885Z,6.70
2017-07-03T08:57:43.453Z,5.67
2017-07-03T09:00:11.024Z,6.93
2017-07-03T09:02:38.591Z,6.23
2017-07-03T09:05:06.150Z,5.20
2017-07-03T09:07:33.706Z,6.03
2017-07-03T09:10:01.285Z,6.50
2017-07-03T09:12:28.842Z,5.40
2017-07-03T09:14:56.779Z,5.90
2017-07-03T09:17:24.346Z,5.63
2017-07-03T09:19:51.918Z,5.60
2017-07-03T09:22:19.786Z,6.37
2017-07-03T09:24:47.353Z,6.23
2017-07-03T09:27:14.927Z,5.97
2017-07-03T09:29:43.301Z,6.23
2017-07-03T09:32:10.880Z,4.97
2017-07-03T09:34:38.495Z,4.73
2017-07-03T09:37:07.746Z,5.40
2017-07-03T09:39:35.354Z,4.83
2017-07-03T09:42:02.911Z,5.73
2017-07-03T09:44:30.467Z,4.80
2017-07-03T09:46:57.987Z,4.83
2017-07-03T09:49:25.592Z,4.80
2017-07-03T09:51:53.153Z,4.90
2017-07-03T09:54:20.962Z,5.00
2017-07-03T09:56:49.299Z,4.60
2017-07-03T09:59:16.868Z,4.47
2017-07-03T10:01:44.442Z,4.83
2017-07-03T10:04:12.076Z,6.20
2017-07-03T10:06:39.636Z,4.10
2017-07-03T10:09:07.229Z,5.00
2017-07-03T10:11:34.835Z,4.60
2017-07-03T10:14:03.156Z,4.37
2017-07-03T10:16:30.748Z,4.40
2017-07-03T10:18:58.328Z,4.43
2017-07-03T10:21:25.949Z,3.93
2017-07-03T10:23:53.524Z,3.50
2017-07-03T10:26:21.083Z,4.03
2017-07-03T10:28:48.715Z,4.37
2017-07-03T10:31:17.107Z,4.10
2017-07-03T10:33:44.711Z,4.13
2017-07-03T10:36:12.314Z,3.80
2017-07-03T10:38:39.889Z,3.30
2017-07-03T10:41:07.457Z,3.20
2017-07-03T10:43:36.092Z,3.30
2017-07-03T10:46:03.679Z,3.40
2017-07-03T10:48:33.234Z,3.43
2017-07-03T10:51:01.540Z,3.40
2017-07-03T10:53:29.093Z,4.40
2017-07-03T10:55:56.715Z,3.60
2017-07-03T10:58:24.274Z,4.13
2017-07-03T11:00:51.837Z,3.53
2017-07-03T11:03:19.574Z,3.93
2017-07-03T11:05:47.137Z,3.87
2017-07-03T11:08:14.737Z,3.53
2017-07-03T11:10:42.330Z,3.40
2017-07-03T11:13:10.254Z,3.70
2017-07-03T11:15:37.848Z,3.43
2017-07-03T11:18:05.423Z,3.70
2017-07-03T11:20:32.961Z,3.67
2017-07-03T11:23:00.545Z,3.90
2017-07-03T11:25:28.141Z,3.40
2017-07-03T11:27:55.720Z,3.37
2017-07-03T11:30:23.308Z,3.30
2017-07-03T11:32:50.935Z,3.60
2017-07-03T11:35:18.526Z,4.03
2017-07-03T11:37:46.077Z,4.13
2017-07-03T11:40:13.677Z,3.70
2017-07-03T11:42:41.302Z,3.70
2017-07-03T11:45:08.868Z,3.47
2017-07-03T11:47:36.437Z,3.47
2017-07-03T11:50:04.043Z,3.23
2017-07-03T11:52:32.626Z,3.60
2017-07-03T11:55:00.201Z,3.37
2017-07-03T11:57:27.756Z,3.17
2017-07-03T11:59:55.318Z,3.30
2017-07-03T12:02:25.547Z,3.13
2017-07-03T12:04:53.124Z,3.43
2017-07-03T12:07:20.682Z,3.50
2017-07-03T12:09:48.259Z,3.43
2017-07-03T12:12:15.811Z,3.57
2017-07-03T12:14:43.367Z,3.37
2017-07-03T12:17:10.939Z,3.47
2017-07-03T12:19:38.535Z,3.60
2017-07-03T12:22:06.891Z,3.67
2017-07-03T12:24:34.472Z,3.60
2017-07-03T12:27:02.093Z,3.70
2017-07-03T12:29:29.664Z,2.90
2017-07-03T12:31:57.383Z,3.33
2017-07-03T12:34:25.737Z,3.10
2017-07-03T12:36:53.331Z,3.33
2017-07-03T12:39:20.906Z,4.40
2017-07-03T12:41:48.474Z,3.77
2017-07-03T12:44:16.817Z,3.63
2017-07-03T12:46:44.372Z,3.40
2017-07-03T12:49:11.932Z,3.27
2017-07-03T12:51:39.493Z,3.00
2017-07-03T12:54:07.062Z,3.30
2017-07-03T12:56:34.951Z,3.70
2017-07-03T12:59:03.324Z,3.30
2017-07-03T13:01:30.897Z,3.50
2017-07-03T13:03:58.448Z,3.30
2017-07-03T13:06:26.026Z,3.13
2017-07-03T13:08:53.562Z,3.10
2017-07-03T13:11:21.134Z,3.20
2017-07-03T13:13:48.737Z,2.93
2017-07-03T13:16:16.307Z,2.83
2017-07-03T13:18:43.866Z,3.40
2017-07-03T13:21:12.218Z,3.17
2017-07-03T13:23:39.882Z,3.40
2017-07-03T13:26:07.466Z,3.20
2017-07-03T13:28:35.077Z,7.60
2017-07-03T13:31:02.637Z,3.20
2017-07-03T13:33:30.241Z,2.90
2017-07-03T13:35:57.807Z,3.20
2017-07-03T13:38:25.331Z,2.80
2017-07-03T13:40:52.879Z,2.77
2017-07-03T13:43:21.195Z,4.37
2017-07-03T13:45:48.804Z,3.17
2017-07-03T13:48:17.364Z,3.40
2017-07-03T13:50:44.940Z,2.90
2017-07-03T13:53:12.524Z,3.47
2017-07-03T13:55:40.083Z,3.50
2017-07-03T13:58:07.651Z,3.53
2017-07-03T14:00:35.223Z,3.37
2017-07-03T14:03:04.561Z,3.43
2017-07-03T14:05:32.105Z,3.60
2017-07-03T14:08:00.486Z,3.00
2017-07-03T14:10:28.056Z,3.27
2017-07-03T14:12:56.393Z,3.13
2017-07-03T14:15:23.978Z,3.20
2017-07-03T14:17:51.546Z,3.00
2017-07-03T14:20:19.111Z,2.90
2017-07-03T14:22:46.669Z,3.07
2017-07-03T14:25:14.294Z,2.90
2017-07-03T14:27:41.967Z,3.53
2017-07-03T14:30:09.558Z,2.90
2017-07-03T14:32:37.098Z,3.20
2017-07-03T14:35:04.690Z,3.37
2017-07-03T14:37:32.391Z,3.00
2017-07-03T14:40:00.033Z,3.17
2017-07-03T14:42:27.607Z,4.30
2017-07-03T14:44:55.185Z,3.23
2017-07-03T14:47:22.829Z,3.30
2017-07-03T14:49:50.416Z,3.30
2017-07-03T14:52:18.011Z,3.07
2017-07-03T14:54:45.576Z,3.33
2017-07-03T14:57:13.138Z,3.40
2017-07-03T14:59:40.740Z,3.40
2017-07-03T15:02:08.307Z,3.07
2017-07-03T15:04:35.901Z,3.17
2017-07-03T15:07:04.227Z,3.20
2017-07-03T15:09:31.791Z,3.20
2017-07-03T15:11:59.445Z,3.43
2017-07-03T15:14:27.064Z,3.20
2017-07-03T15:16:55.493Z,2.87
2017-07-03T15:19:23.060Z,2.90
2017-07-03T15:21:51.053Z,3.10
2017-07-03T15:24:18.661Z,3.33
2017-07-03T15:26:46.235Z,3.20
2017-07-03T15:29:14.616Z,2.83
2017-07-03T15:31:43.001Z,3.10
2017-07-03T15:34:11.340Z,3.03
2017-07-03T15:36:38.952Z,3.40
2017-07-03T15:39:07.332Z,3.07
2017-07-03T15:41:35.688Z,2.80
2017-07-03T15:44:03.261Z,3.37
2017-07-03T15:46:31.591Z,3.10
2017-07-03T15:48:59.621Z,2.90
2017-07-03T15:51:27.202Z,2.77
2017-07-03T15:53:55.550Z,3.30
2017-07-03T15:56:23.134Z,2.90
2017-07-03T15:58:50.690Z,2.87
2017-07-03T16:01:18.233Z,3.10
2017-07-03T16:03:45.894Z,2.80
2017-07-03T16:06:13.435Z,3.20
2017-07-03T16:08:41.025Z,3.77
2017-07-03T16:11:08.603Z,3.73
2017-07-03T16:13:36.488Z,3.33
2017-07-03T16:16:04.123Z,3.23
2017-07-03T16:18:31.721Z,3.03
2017-07-03T16:20:59.526Z,3.40
2017-07-03T16:23:27.126Z,3.27
2017-07-03T16:25:54.714Z,3.07
2017-07-03T16:28:22.283Z,3.20
2017-07-03T16:30:50.039Z,3.10
2017-07-03T16:33:17.868Z,3.40
2017-07-03T16:35:45.511Z,3.00
2017-07-03T16:38:13.053Z,2.97
2017-07-03T16:40:40.665Z,2.80
2017-07-03T16:43:08.231Z,3.47
2017-07-03T16:45:35.882Z,2.90
2017-07-03T16:48:03.492Z,2.80
2017-07-03T16:50:38.458Z,2.57
2017-07-03T16:53:11.347Z,2.90
2017-07-03T16:55:41.360Z,2.80
2017-07-03T16:58:09.090Z,2.80
2017-07-03T17:00:36.649Z,2.70
2017-07-03T17:03:04.232Z,3.10
2017-07-03T17:05:31.828Z,2.80
2017-07-03T17:08:02.872Z,2.60
2017-07-03T17:10:31.019Z,3.13
2017-07-03T17:12:59.430Z,2.60
2017-07-03T17:15:27.025Z,3.07
2017-07-03T17:17:55.508Z,2.60
2017-07-03T17:20:23.862Z,2.97
2017-07-03T17:22:51.591Z,2.80
2017-07-03T17:25:19.147Z,3.80
2017-07-03T17:27:46.745Z,3.10
2017-07-03T17:30:14.378Z,2.70
2017-07-03T17:32:42.361Z,3.00
2017-07-03T17:35:10.374Z,4.60
2017-07-03T17:37:38.031Z,3.00
2017-07-03T17:40:05.613Z,2.93
2017-07-03T17:42:33.346Z,4.80
2017-07-03T17:45:00.948Z,3.60
2017-07-03T17:47:32.432Z,3.70
2017-07-03T17:50:00.511Z,2.83
2017-07-03T17:52:28.822Z,2.70
2017-07-03T17:55:00.381Z,5.70
2017-07-03T17:57:27.981Z,2.90
2017-07-03T17:59:55.537Z,2.83
2017-07-03T18:02:23.443Z,3.10
2017-07-03T18:04:51.789Z,2.60
2017-07-03T18:07:19.403Z,2.40
2017-07-03T18:09:46.984Z,2.70
2017-07-03T18:12:14.939Z,2.90
2017-07-03T18:14:42.523Z,2.90
2017-07-03T18:17:10.052Z,2.97
2017-07-03T18:19:37.636Z,2.90
2017-07-03T18:22:05.249Z,2.77
2017-07-03T18:24:33.240Z,3.40
2017-07-03T18:27:00.811Z,3.00
2017-07-03T18:29:29.157Z,3.07
2017-07-03T18:31:56.738Z,2.77
2017-07-03T18:34:24.296Z,2.70
2017-07-03T18:36:51.848Z,2.70
2017-07-03T18:39:19.393Z,2.40
2017-07-03T18:41:46.985Z,2.70
2017-07-03T18:44:14.551Z,3.17
2017-07-03T18:46:42.537Z,2.73
2017-07-03T18:49:10.102Z,2.63
2017-07-03T18:51:37.634Z,8.93
2017-07-03T18:54:05.242Z,2.57
2017-07-03T18:56:33.908Z,2.10
2017-07-03T18:59:01.619Z,2.50
2017-07-03T19:01:29.257Z,3.03
2017-07-03T19:03:56.815Z,2.20
2017-07-03T19:06:24.500Z,3.00
2017-07-03T19:08:52.368Z,2.93
2017-07-03T19:11:20.043Z,2.50
2017-07-03T19:13:47.669Z,2.70
2017-07-03T19:16:15.610Z,2.80
2017-07-03T19:18:43.230Z,2.67
2017-07-03T19:21:12.017Z,2.73
2017-07-03T19:23:39.653Z,2.23
2017-07-03T19:26:07.236Z,3.07
2017-07-03T19:28:34.834Z,2.17
2017-07-03T19:31:02.691Z,2.50
2017-07-03T19:33:30.676Z,2.30
2017-07-03T19:35:58.341Z,2.43
2017-07-03T19:38:26.005Z,5.97
2017-07-03T19:40:56.366Z,1.90
2017-07-03T19:43:24.823Z,2.07
2017-07-03T19:45:52.453Z,4.13
2017-07-03T19:48:20.263Z,6.10
2017-07-03T19:50:47.881Z,2.60
2017-07-03T19:53:15.494Z,2.00
2017-07-03T19:55:43.116Z,3.47
2017-07-03T19:58:10.659Z,2.80
2017-07-03T20:00:38.306Z,3.70
2017-07-03T20:03:06.824Z,2.50
2017-07-03T20:05:34.536Z,2.40
2017-07-03T20:08:02.164Z,2.40
2017-07-03T20:13:45.747Z,2.60
2017-07-03T20:16:13.318Z,2.40
2017-07-03T20:18:40.898Z,2.17
2017-07-03T20:21:13.103Z,2.30
2017-07-03T20:23:40.644Z,2.20
2017-07-03T20:26:10.927Z,2.20
2017-07-03T20:28:38.604Z,2.80
2017-07-03T20:31:06.174Z,2.47
2017-07-03T20:33:33.757Z,2.70
2017-07-03T20:36:01.326Z,2.73
2017-07-03T20:38:28.962Z,2.50
2017-07-03T20:40:57.305Z,2.37
2017-07-03T20:43:25.076Z,3.27
2017-07-03T20:45:52.709Z,3.30
2017-07-03T20:48:21.027Z,5.27
2017-07-03T20:50:51.238Z,2.60
2017-07-03T20:53:23.063Z,2.23
2017-07-03T20:55:50.628Z,2.53
2017-07-03T20:58:19.000Z,2.53
2017-07-03T21:00:46.552Z,3.40
2017-07-03T21:03:15.915Z,2.80
2017-07-03T21:05:43.487Z,3.60
2017-07-03T21:08:11.939Z,2.70
2017-07-03T21:10:40.254Z,2.90
2017-07-03T21:13:07.811Z,2.47
2017-07-03T21:15:36.174Z,2.60
2017-07-03T21:18:05.284Z,2.67
2017-07-03T21:20:32.846Z,3.33
2017-07-03T21:23:06.486Z,2.80
2017-07-03T21:25:35.729Z,2.03
2017-07-03T21:28:04.547Z,3.43
2017-07-03T21:31:15.978Z,2.80
2017-07-03T21:33:43.677Z,2.90
2017-07-03T21:36:12.184Z,2.47
2017-07-03T21:38:40.382Z,2.47
2017-07-03T21:41:08.050Z,2.10
2017-07-03T21:43:35.666Z,2.87
2017-07-03T21:46:04.929Z,2.63
2017-07-03T21:48:32.711Z,3.07
2017-07-03T21:51:04.782Z,3.27
2017-07-03T21:53:32.425Z,3.00
2017-07-03T21:56:00.402Z,3.00
2017-07-03T21:58:29.753Z,2.27
2017-07-03T22:00:57.509Z,2.30
2017-07-03T22:03:30.218Z,2.53
2017-07-03T22:05:57.891Z,2.00
2017-07-03T22:08:28.446Z,2.33
2017-07-03T22:10:56.541Z,2.27
2017-07-03T22:13:26.938Z,2.10
2017-07-03T22:15:54.667Z,2.10
2017-07-03T22:18:25.013Z,2.23
2017-07-03T22:20:53.556Z,2.10
2017-07-03T22:23:23.573Z,6.70
2017-07-03T22:25:51.221Z,2.20
2017-07-03T22:28:20.021Z,2.70
2017-07-03T22:30:48.430Z,2.57
2017-07-03T22:33:16.251Z,4.50
2017-07-03T22:35:46.444Z,1.90
2017-07-03T22:38:16.043Z,2.80
2017-07-03T22:40:47.462Z,2.50
2017-07-03T22:43:17.522Z,4.80
2017-07-03T22:45:48.361Z,2.13
2017-07-03T22:48:15.997Z,2.00
2017-07-03T22:50:44.455Z,2.60
2017-07-03T22:56:35.009Z,2.60
2017-07-03T22:59:02.946Z,2.80
2017-07-03T23:01:32.304Z,3.60
2017-07-03T23:04:03.912Z,2.23
2017-07-03T23:06:48.694Z,1.80
2017-07-03T23:09:16.463Z,3.03
2017-07-03T23:11:46.643Z,1.40
2017-07-03T23:20:45.793Z,1.73
2017-07-03T23:23:15.359Z,1.83
2017-07-03T23:25:43.045Z,1.73
2017-07-03T23:28:12.120Z,1.93
2017-07-03T23:30:41.401Z,2.30
2017-07-03T23:33:09.302Z,2.60
2017-07-03T23:35:37.571Z,2.30
2017-07-03T23:38:06.092Z,2.40
2017-07-03T23:40:33.733Z,2.00
2017-07-03T23:43:01.324Z,2.50
2017-07-03T23:45:32.640Z,2.23
2017-07-03T23:48:00.291Z,2.43
2017-07-03T23:50:27.935Z,2.67
2017-07-03T23:52:55.560Z,2.80
2017-07-03T23:55:23.174Z,2.60
2017-07-03T23:57:51.547Z,3.43
